createdAt,value
2022-11-24T00:01:16.586Z,78.88
2022-11-24T00:03:44.068Z,80.35
2022-11-24T00:06:12.699Z,83.90
2022-11-24T00:08:41.033Z,79.80
2022-11-24T00:11:10.215Z,87.47
2022-11-24T00:13:37.336Z,69.63
2022-11-24T00:16:09.325Z,91.13
2022-11-24T00:18:37.767Z,72.57
2022-11-24T00:21:04.821Z,69.15
2022-11-24T00:23:31.724Z,95.60
2022-11-24T00:26:04.209Z,85.78
2022-11-24T00:28:31.907Z,98.07
2022-11-24T00:30:58.681Z,78.45
2022-11-24T00:33:25.425Z,106.60
2022-11-24T00:35:56.021Z,85.88
2022-11-24T00:38:22.847Z,76.55
2022-11-24T00:40:49.702Z,80.45
2022-11-24T00:43:16.356Z,84.90
2022-11-24T00:45:43.454Z,83.57
2022-11-24T00:48:10.308Z,77.72
2022-11-24T00:50:37.059Z,115.82
2022-11-24T00:53:05.170Z,78.57
2022-11-24T00:55:31.972Z,71.60
2022-11-24T00:57:58.863Z,77.20
2022-11-24T01:00:25.640Z,68.13
2022-11-24T01:02:52.555Z,76.47
2022-11-24T01:05:19.457Z,76.90
2022-11-24T01:07:46.207Z,69.53
2022-11-24T01:10:14.439Z,73.22
2022-11-24T01:12:41.124Z,71.82
2022-11-24T01:15:08.600Z,76.80
2022-11-24T01:17:35.294Z,64.35
2022-11-24T01:20:02.029Z,85.03
2022-11-24T01:22:28.759Z,85.65
2022-11-24T01:24:55.442Z,138.07
2022-11-24T01:27:23.521Z,73.07
2022-11-24T01:29:50.171Z,85.63
2022-11-24T01:32:16.865Z,72.82
2022-11-24T01:34:43.642Z,65.72
2022-11-24T01:37:10.361Z,68.40
2022-11-24T01:39:37.040Z,73.95
2022-11-24T01:42:03.824Z,72.57
2022-11-24T01:44:32.222Z,66.95
2022-11-24T01:47:02.708Z,70.63
2022-11-24T01:49:38.349Z,65.78
2022-11-24T01:52:08.433Z,80.53
2022-11-24T01:54:38.149Z,77.63
2022-11-24T01:57:11.223Z,75.32
2022-11-24T01:59:39.490Z,90.07
2022-11-24T02:02:06.730Z,65.05
2022-11-24T02:04:34.575Z,68.72
2022-11-24T02:07:03.308Z,60.20
2022-11-24T02:09:36.080Z,69.75
2022-11-24T02:12:03.264Z,61.90
2022-11-24T02:14:30.157Z,56.20
2022-11-24T02:16:58.284Z,90.97
2022-11-24T02:19:37.627Z,70.88
2022-11-24T02:22:05.021Z,69.45
2022-11-24T02:24:40.104Z,70.97
2022-11-24T02:27:10.653Z,64.97
2022-11-24T02:29:37.967Z,67.18
2022-11-24T02:32:07.533Z,57.53
2022-11-24T02:34:34.831Z,61.30
2022-11-24T02:37:01.783Z,71.40
2022-11-24T02:39:28.683Z,57.53
2022-11-24T02:41:59.337Z,59.03
2022-11-24T02:44:32.633Z,53.33
2022-11-24T02:47:03.828Z,51.38
2022-11-24T02:49:30.511Z,53.05
2022-11-24T02:51:57.290Z,59.60
2022-11-24T02:54:24.113Z,67.57
2022-11-24T02:56:50.956Z,59.22
2022-11-24T02:59:17.769Z,55.75
2022-11-24T03:01:45.907Z,63.40
2022-11-24T03:04:12.716Z,51.80
2022-11-24T03:06:39.561Z,49.50
2022-11-24T03:09:06.511Z,54.42
2022-11-24T03:11:33.280Z,58.00
2022-11-24T03:14:00.046Z,46.33
2022-11-24T03:16:26.794Z,68.05
2022-11-24T03:18:54.938Z,75.88
2022-11-24T03:21:21.686Z,83.35
2022-11-24T03:23:48.405Z,91.05
2022-11-24T03:26:17.542Z,57.35
2022-11-24T03:28:44.467Z,72.30
2022-11-24T03:31:12.077Z,58.92
2022-11-24T03:33:39.374Z,63.58
2022-11-24T03:36:08.824Z,52.28
2022-11-24T03:38:35.506Z,76.22
2022-11-24T03:41:02.260Z,46.83
2022-11-24T03:43:29.022Z,51.45
2022-11-24T03:45:55.846Z,59.25
2022-11-24T03:48:22.633Z,63.63
2022-11-24T03:50:54.012Z,126.07
2022-11-24T03:53:22.634Z,138.18
2022-11-24T03:55:49.344Z,108.10
2022-11-24T03:58:16.068Z,159.70
2022-11-24T04:00:42.952Z,105.40
2022-11-24T04:03:09.717Z,66.68
2022-11-24T04:05:36.712Z,67.65
2022-11-24T04:08:03.562Z,109.82
2022-11-24T04:10:32.192Z,166.25
2022-11-24T04:12:58.955Z,73.70
2022-11-24T04:15:25.552Z,67.80
2022-11-24T04:17:55.603Z,59.60
2022-11-24T04:20:23.099Z,63.03
2022-11-24T04:22:50.178Z,91.47
2022-11-24T04:25:16.844Z,62.45
2022-11-24T04:27:44.864Z,61.47
2022-11-24T04:30:11.915Z,55.90
2022-11-24T04:32:38.543Z,55.47
2022-11-24T04:35:05.875Z,63.20
2022-11-24T04:37:32.525Z,72.47
2022-11-24T04:39:59.236Z,73.50
2022-11-24T04:42:25.909Z,58.42
2022-11-24T04:44:53.860Z,58.33
2022-11-24T04:47:23.103Z,56.53
2022-11-24T04:49:50.347Z,93.38
2022-11-24T04:52:17.329Z,51.33
2022-11-24T04:54:44.147Z,76.28
2022-11-24T04:57:16.184Z,64.05
2022-11-24T04:59:43.056Z,50.88
2022-11-24T05:02:11.373Z,80.40
2022-11-24T05:04:38.308Z,49.33
2022-11-24T05:07:05.374Z,64.22
2022-11-24T05:09:54.923Z,58.88
2022-11-24T05:12:18.577Z,58.22
2022-11-24T05:14:45.181Z,70.20
2022-11-24T05:17:13.142Z,59.63
2022-11-24T05:19:39.741Z,80.93
2022-11-24T05:22:06.363Z,153.82
2022-11-24T05:24:33.148Z,145.30
2022-11-24T05:26:59.973Z,161.52
2022-11-24T05:29:26.576Z,91.88
2022-11-24T05:31:53.168Z,92.95
2022-11-24T05:34:21.186Z,90.63
2022-11-24T05:36:47.718Z,110.25
2022-11-24T05:39:14.315Z,94.18
2022-11-24T05:41:41.774Z,102.72
2022-11-24T05:44:08.519Z,145.88
2022-11-24T05:46:35.132Z,109.15
2022-11-24T05:49:01.845Z,76.82
2022-11-24T05:51:29.960Z,109.07
2022-11-24T05:53:56.646Z,140.48
2022-11-24T05:56:23.201Z,62.50
2022-11-24T05:58:49.740Z,70.75
2022-11-24T06:01:16.292Z,77.03
2022-11-24T06:03:42.856Z,88.05
2022-11-24T06:06:10.428Z,80.35
2022-11-24T06:08:38.369Z,72.18
2022-11-24T06:11:05.098Z,72.25
2022-11-24T06:13:31.687Z,70.15
2022-11-24T06:15:59.373Z,76.20
2022-11-24T06:18:25.983Z,79.95
2022-11-24T06:21:09.780Z,64.47
2022-11-24T06:23:38.603Z,105.60
2022-11-24T06:26:05.533Z,66.50
2022-11-24T06:28:32.137Z,74.88
2022-11-24T06:31:02.408Z,77.50
2022-11-24T06:33:31.779Z,85.55
2022-11-24T06:36:00.397Z,78.35
2022-11-24T06:38:27.056Z,61.03
2022-11-24T06:41:00.343Z,63.47
2022-11-24T06:43:26.969Z,62.08
2022-11-24T06:45:53.602Z,54.15
2022-11-24T06:48:20.229Z,65.03
2022-11-24T06:50:46.818Z,62.28
2022-11-24T06:53:13.370Z,66.00
2022-11-24T06:55:40.159Z,75.72
2022-11-24T06:58:08.074Z,59.03
2022-11-24T07:00:34.699Z,62.95
2022-11-24T07:03:01.370Z,61.03
2022-11-24T07:05:28.210Z,64.47
2022-11-24T07:07:54.855Z,67.10
2022-11-24T07:10:21.696Z,52.78
2022-11-24T07:12:48.292Z,52.25
2022-11-24T07:15:16.411Z,56.38
2022-11-24T07:17:42.988Z,55.88
2022-11-24T07:20:10.409Z,59.55
2022-11-24T07:22:36.996Z,57.58
2022-11-24T07:25:03.951Z,61.47
2022-11-24T07:27:30.531Z,58.40
2022-11-24T07:29:57.144Z,59.10
2022-11-24T07:32:25.180Z,45.70
2022-11-24T07:34:51.774Z,46.60
2022-11-24T07:37:18.364Z,49.55
2022-11-24T07:39:44.894Z,46.33
2022-11-24T07:42:11.534Z,46.78
2022-11-24T07:44:38.076Z,43.20
2022-11-24T07:47:04.696Z,44.53
2022-11-24T07:49:32.684Z,42.33
2022-11-24T07:51:59.277Z,43.88
2022-11-24T07:54:25.823Z,44.28
2022-11-24T07:56:52.346Z,45.78
2022-11-24T07:59:18.928Z,45.17
2022-11-24T08:01:45.525Z,45.10
2022-11-24T08:04:12.293Z,47.35
2022-11-24T08:06:45.944Z,45.33
2022-11-24T08:09:13.858Z,39.00
2022-11-24T08:11:40.628Z,41.47
2022-11-24T08:14:07.234Z,40.83
2022-11-24T08:16:33.892Z,46.30
2022-11-24T08:19:00.506Z,43.90
2022-11-24T08:21:27.046Z,43.40
2022-11-24T08:23:56.241Z,48.13
2022-11-24T08:26:23.391Z,54.55
2022-11-24T08:28:54.069Z,45.30
2022-11-24T08:31:20.802Z,46.63
2022-11-24T08:33:47.436Z,52.80
2022-11-24T08:36:15.630Z,54.08
2022-11-24T08:38:42.682Z,41.17
2022-11-24T08:41:12.417Z,41.70
2022-11-24T08:43:39.492Z,38.00
2022-11-24T08:46:09.214Z,73.57
2022-11-24T08:48:36.808Z,49.38
2022-11-24T08:51:07.272Z,44.90
2022-11-24T08:53:33.970Z,44.10
2022-11-24T08:56:00.767Z,46.03
2022-11-24T08:58:29.773Z,43.58
2022-11-24T09:01:03.206Z,49.38
2022-11-24T09:03:29.894Z,45.15
2022-11-24T09:05:56.458Z,45.63
2022-11-24T09:08:23.026Z,37.08
2022-11-24T09:10:49.576Z,46.13
2022-11-24T09:13:16.183Z,41.15
2022-11-24T09:15:44.151Z,38.40
2022-11-24T09:18:10.685Z,43.03
2022-11-24T09:20:37.372Z,40.33
2022-11-24T09:23:03.912Z,39.97
2022-11-24T09:25:30.490Z,44.17
2022-11-24T09:27:57.171Z,40.63
2022-11-24T09:30:24.007Z,44.97
2022-11-24T09:32:51.976Z,39.85
2022-11-24T09:35:18.593Z,37.20
2022-11-24T09:37:45.184Z,46.58
2022-11-24T09:40:14.752Z,39.05
2022-11-24T09:42:53.513Z,40.92
2022-11-24T09:46:03.318Z,41.17
2022-11-24T09:48:25.562Z,35.08
2022-11-24T09:50:52.994Z,36.25
2022-11-24T09:53:27.401Z,37.63
2022-11-24T09:55:58.428Z,34.78
2022-11-24T09:58:35.833Z,40.33
2022-11-24T10:01:07.706Z,35.05
2022-11-24T10:03:39.148Z,36.88
2022-11-24T10:06:19.718Z,35.25
2022-11-24T10:09:30.738Z,38.67
2022-11-24T10:12:13.187Z,40.50
2022-11-24T10:15:00.815Z,40.25
2022-11-24T10:17:42.622Z,38.72
2022-11-24T10:20:19.100Z,38.00
2022-11-24T10:22:58.060Z,39.75
2022-11-24T10:25:26.129Z,43.85
2022-11-24T10:27:57.951Z,37.15
2022-11-24T10:30:24.659Z,41.50
2022-11-24T10:32:56.836Z,39.42
2022-11-24T10:35:29.690Z,39.67
2022-11-24T10:38:02.382Z,39.13
2022-11-24T10:43:26.459Z,39.92
2022-11-24T10:45:53.378Z,40.22
2022-11-24T10:48:24.108Z,39.58
2022-11-24T10:50:53.199Z,36.40
2022-11-24T10:53:24.616Z,38.65
2022-11-24T10:56:02.080Z,38.40
2022-11-24T10:58:36.025Z,40.72
2022-11-24T11:01:27.548Z,38.22
2022-11-24T11:03:57.966Z,36.60
2022-11-24T11:06:28.152Z,38.05
2022-11-24T11:09:16.687Z,34.28
2022-11-24T11:11:43.253Z,40.28
2022-11-24T11:14:11.068Z,38.78
2022-11-24T11:16:39.833Z,37.28
2022-11-24T11:19:48.525Z,35.20
2022-11-24T11:22:25.406Z,40.63
2022-11-24T11:25:05.677Z,37.67
2022-11-24T11:27:32.342Z,39.53
2022-11-24T11:35:51.826Z,44.65
2022-11-24T11:38:20.665Z,38.88
2022-11-24T11:40:50.219Z,39.67
2022-11-24T11:43:25.751Z,48.63
2022-11-24T11:46:02.183Z,43.08
2022-11-24T11:48:40.593Z,43.35
2022-11-24T11:51:30.770Z,41.15
2022-11-24T11:54:07.911Z,42.47
2022-11-24T11:56:37.998Z,45.95
2022-11-24T11:59:37.541Z,39.00
2022-11-24T12:02:33.321Z,41.90
2022-11-24T12:05:01.935Z,41.30
2022-11-24T12:07:58.154Z,40.28
2022-11-24T12:10:36.222Z,45.17
2022-11-24T12:13:28.741Z,44.22
2022-11-24T12:15:58.805Z,39.17
2022-11-24T12:18:56.589Z,50.33
2022-11-24T12:21:29.738Z,45.00
2022-11-24T12:24:04.528Z,41.95
2022-11-24T12:26:42.581Z,49.65
2022-11-24T12:30:06.038Z,44.40
2022-11-24T12:33:00.924Z,42.58
2022-11-24T12:35:34.326Z,43.95
2022-11-24T12:41:06.495Z,42.35
2022-11-24T12:43:50.122Z,44.92
2022-11-24T12:46:21.112Z,43.40
2022-11-24T12:48:57.640Z,43.53
2022-11-24T12:51:29.234Z,43.55
2022-11-24T12:53:58.529Z,43.47
2022-11-24T12:56:35.990Z,43.45
2022-11-24T12:59:17.950Z,42.40
2022-11-24T13:01:51.174Z,41.00
2022-11-24T13:04:29.898Z,50.08
2022-11-24T13:07:01.179Z,43.45
2022-11-24T13:09:27.794Z,44.20
2022-11-24T13:12:05.180Z,46.00
2022-11-24T13:14:37.548Z,44.50
2022-11-24T13:17:38.310Z,46.87
2022-11-24T13:20:24.168Z,46.08
2022-11-24T13:22:52.719Z,43.53
2022-11-24T13:25:21.629Z,45.47
2022-11-24T13:27:50.036Z,41.08
2022-11-24T13:30:55.274Z,43.25
2022-11-24T13:33:33.815Z,47.92
2022-11-24T13:36:32.610Z,44.47
2022-11-24T13:39:01.038Z,40.38
2022-11-24T13:42:07.594Z,40.30
2022-11-24T13:44:53.994Z,40.38
2022-11-24T13:47:37.424Z,41.55
2022-11-24T13:50:06.884Z,40.35
2022-11-24T13:52:43.811Z,37.47
2022-11-24T13:55:22.822Z,38.83
2022-11-24T13:57:52.079Z,43.00
2022-11-24T14:00:21.975Z,48.92
2022-11-24T14:02:51.695Z,47.45
2022-11-24T14:05:22.550Z,39.55
2022-11-24T14:07:53.008Z,43.70
2022-11-24T14:10:24.461Z,41.97
2022-11-24T14:13:25.054Z,42.28
2022-11-24T14:15:59.416Z,45.05
2022-11-24T14:18:27.954Z,43.40
2022-11-24T14:20:54.781Z,41.38
2022-11-24T14:23:21.865Z,41.72
2022-11-24T14:25:49.724Z,48.55
2022-11-24T14:28:22.799Z,44.78
2022-11-24T14:30:49.530Z,51.45
2022-11-24T14:33:18.510Z,47.92
2022-11-24T14:35:47.965Z,42.83
2022-11-24T14:38:14.685Z,43.53
2022-11-24T14:40:43.508Z,43.60
2022-11-24T14:43:21.548Z,45.20
2022-11-24T14:45:53.314Z,44.83
2022-11-24T14:48:25.632Z,50.53
2022-11-24T14:50:54.754Z,46.75
2022-11-24T14:53:26.184Z,47.58
2022-11-24T14:56:14.035Z,41.03
2022-11-24T14:58:42.459Z,41.70
2022-11-24T15:01:17.900Z,44.40
2022-11-24T15:03:44.584Z,44.78
2022-11-24T15:06:18.131Z,48.42
2022-11-24T15:08:46.906Z,45.60
2022-11-24T15:11:14.644Z,45.72
2022-11-24T15:13:53.063Z,58.42
2022-11-24T15:16:23.158Z,51.05
2022-11-24T15:18:57.382Z,53.38
2022-11-24T15:21:32.651Z,43.15
2022-11-24T15:24:07.492Z,47.28
2022-11-24T15:26:38.519Z,44.35
2022-11-24T15:29:08.818Z,50.88
2022-11-24T15:31:35.614Z,50.88
2022-11-24T15:34:02.216Z,43.90
2022-11-24T15:36:28.865Z,163.13
2022-11-24T15:38:56.860Z,106.07
2022-11-24T15:41:28.313Z,130.48
2022-11-24T15:43:54.887Z,69.53
2022-11-24T15:46:21.646Z,56.72
2022-11-24T15:48:48.262Z,47.38
2022-11-24T15:51:15.277Z,44.50
2022-11-24T15:53:45.016Z,133.40
2022-11-24T15:56:19.070Z,65.40
2022-11-24T15:58:45.694Z,52.00
2022-11-24T16:01:12.289Z,49.33
2022-11-24T16:03:47.091Z,53.22
2022-11-24T16:06:22.184Z,54.88
2022-11-24T16:08:51.366Z,50.53
2022-11-24T16:11:19.297Z,48.88
2022-11-24T16:13:51.799Z,49.63
2022-11-24T16:16:20.590Z,57.22
2022-11-24T16:18:47.338Z,50.78
2022-11-24T16:21:13.993Z,52.53
2022-11-24T16:23:40.655Z,56.80
2022-11-24T16:26:07.518Z,47.75
2022-11-24T16:28:35.513Z,51.70
2022-11-24T16:31:02.301Z,47.13
2022-11-24T16:33:29.639Z,49.08
2022-11-24T16:35:56.407Z,70.85
2022-11-24T16:38:23.029Z,84.32
2022-11-24T16:40:51.263Z,102.82
2022-11-24T16:43:18.028Z,110.40
2022-11-24T16:45:46.203Z,123.32
2022-11-24T16:48:12.896Z,134.85
2022-11-24T16:50:39.495Z,121.22
2022-11-24T16:53:06.087Z,99.75
2022-11-24T16:55:32.670Z,115.65
2022-11-24T16:57:59.222Z,88.15
2022-11-24T17:00:25.762Z,73.18
2022-11-24T17:02:53.936Z,62.15
2022-11-24T17:05:20.612Z,65.03
2022-11-24T17:07:47.293Z,55.60
2022-11-24T17:10:14.010Z,45.78
2022-11-24T17:12:40.559Z,57.90
2022-11-24T17:15:31.849Z,56.00
2022-11-24T17:18:23.043Z,71.57
2022-11-24T17:20:42.274Z,64.72
2022-11-24T17:23:08.859Z,62.50
2022-11-24T17:25:35.469Z,50.85
2022-11-24T17:28:02.043Z,48.90
2022-11-24T17:30:28.714Z,47.17
2022-11-24T17:32:57.134Z,47.30
2022-11-24T17:35:23.792Z,47.45
2022-11-24T17:37:50.436Z,47.35
2022-11-24T17:40:32.391Z,48.92
2022-11-24T17:42:59.354Z,58.35
2022-11-24T17:45:26.099Z,48.53
2022-11-24T17:47:52.751Z,57.22
2022-11-24T17:50:25.460Z,50.55
2022-11-24T17:55:19.348Z,49.92
2022-11-24T17:57:45.906Z,47.95
2022-11-24T18:00:13.808Z,70.57
2022-11-24T18:02:40.447Z,57.72
2022-11-24T18:05:07.808Z,53.97
2022-11-24T18:07:36.570Z,54.15
2022-11-24T18:10:03.945Z,50.58
2022-11-24T18:12:30.552Z,53.25
2022-11-24T18:14:57.234Z,53.70
2022-11-24T18:17:23.840Z,49.83
2022-11-24T18:19:50.562Z,49.95
2022-11-24T18:22:17.644Z,45.50
2022-11-24T18:24:47.010Z,51.30
2022-11-24T18:27:13.580Z,45.13
2022-11-24T18:29:40.142Z,53.72
2022-11-24T18:32:06.785Z,66.38
2022-11-24T18:34:33.741Z,57.90
2022-11-24T18:37:00.563Z,50.38
2022-11-24T18:39:27.097Z,50.28
2022-11-24T18:41:55.083Z,56.60
2022-11-24T18:44:21.775Z,66.32
2022-11-24T18:46:49.268Z,57.85
2022-11-24T18:49:15.877Z,54.75
2022-11-24T18:51:42.474Z,52.42
2022-11-24T18:54:09.035Z,54.55
2022-11-24T18:56:35.603Z,50.85
2022-11-24T18:59:03.525Z,56.28
2022-11-24T19:01:30.200Z,50.22
2022-11-24T19:03:58.442Z,53.22
2022-11-24T19:06:27.269Z,55.70
2022-11-24T19:08:54.725Z,56.45
2022-11-24T19:11:22.704Z,56.72
2022-11-24T19:13:50.502Z,52.25
2022-11-24T19:16:19.768Z,48.15
2022-11-24T19:18:51.971Z,53.25
2022-11-24T19:23:46.643Z,39.78
2022-11-24T19:26:13.419Z,52.75
2022-11-24T19:28:40.045Z,44.30
2022-11-24T19:31:08.457Z,41.33
2022-11-24T19:33:36.511Z,48.38
2022-11-24T19:36:04.857Z,43.95
2022-11-24T19:38:33.201Z,47.00
2022-11-24T19:41:01.384Z,47.35
2022-11-24T19:43:28.022Z,50.25
2022-11-24T19:45:54.656Z,50.05
2022-11-24T19:48:21.340Z,44.20
2022-11-24T19:50:49.311Z,42.72
2022-11-24T19:53:15.910Z,42.97
2022-11-24T19:55:42.471Z,42.72
2022-11-24T19:58:09.034Z,42.35
2022-11-24T20:00:35.605Z,44.67
2022-11-24T20:03:02.268Z,43.25
2022-11-24T20:05:28.853Z,44.40
2022-11-24T20:07:56.954Z,37.88
2022-11-24T20:10:23.654Z,37.33
2022-11-24T20:12:50.628Z,44.72
2022-11-24T20:15:17.257Z,44.55
2022-11-24T20:17:43.840Z,47.15
2022-11-24T20:20:11.234Z,46.83
2022-11-24T20:22:37.795Z,44.47
2022-11-24T20:25:06.550Z,46.05
2022-11-24T20:27:33.133Z,39.90
2022-11-24T20:29:59.733Z,55.95
2022-11-24T20:32:26.311Z,53.50
2022-11-24T20:34:52.939Z,97.05
2022-11-24T20:37:19.513Z,55.75
2022-11-24T20:39:46.078Z,48.88
2022-11-24T20:42:14.044Z,67.40
2022-11-24T20:44:40.627Z,98.75
2022-11-24T20:47:07.185Z,64.57
2022-11-24T20:49:33.765Z,47.67
2022-11-24T20:52:00.356Z,50.50
2022-11-24T20:54:27.254Z,92.03
2022-11-24T20:56:54.167Z,44.55
2022-11-24T20:59:24.021Z,55.03
2022-11-24T21:01:51.934Z,51.05
2022-11-24T21:04:20.865Z,53.50
2022-11-24T21:06:47.614Z,107.60
2022-11-24T21:09:14.693Z,72.25
2022-11-24T21:11:41.754Z,83.97
2022-11-24T21:14:09.023Z,65.30
2022-11-24T21:16:38.576Z,57.60
2022-11-24T21:19:07.378Z,91.00
2022-11-24T21:21:35.948Z,152.73
2022-11-24T21:24:04.222Z,94.15
2022-11-24T21:26:30.791Z,85.30
2022-11-24T21:28:57.657Z,81.35
2022-11-24T21:31:24.307Z,70.72
2022-11-24T21:33:53.986Z,54.80
2022-11-24T21:36:22.751Z,47.05
2022-11-24T21:38:51.202Z,53.20
2022-11-24T21:41:18.654Z,84.20
2022-11-24T21:43:45.317Z,82.68
2022-11-24T21:46:12.949Z,81.35
2022-11-24T21:48:40.382Z,154.50
2022-11-24T21:51:12.314Z,122.38
2022-11-24T21:53:39.607Z,166.32
2022-11-24T21:56:07.960Z,185.68
2022-11-24T21:58:34.573Z,209.32
2022-11-24T22:01:02.127Z,128.43
2022-11-24T22:03:28.744Z,111.18
2022-11-24T22:05:56.532Z,94.65
2022-11-24T22:08:25.942Z,87.75
2022-11-24T22:10:52.885Z,66.10
2022-11-24T22:13:20.137Z,48.65
2022-11-24T22:15:46.753Z,51.42
2022-11-24T22:18:13.301Z,45.50
2022-11-24T22:20:39.881Z,70.07
2022-11-24T22:23:06.478Z,45.63
2022-11-24T22:25:34.704Z,45.90
2022-11-24T22:28:01.339Z,67.55
2022-11-24T22:30:27.940Z,65.60
2022-11-24T22:32:54.536Z,73.60
2022-11-24T22:35:21.897Z,65.38
2022-11-24T22:37:48.452Z,54.05
2022-11-24T22:40:15.260Z,80.38
2022-11-24T22:42:43.213Z,62.67
2022-11-24T22:45:10.452Z,43.95
2022-11-24T22:47:37.017Z,45.13
2022-11-24T22:50:04.553Z,43.92
2022-11-24T22:52:31.132Z,40.90
2022-11-24T22:54:57.713Z,36.33
2022-11-24T22:57:24.327Z,33.95
2022-11-24T22:59:52.300Z,38.22
2022-11-24T23:02:18.905Z,32.20
2022-11-24T23:04:45.464Z,33.95
2022-11-24T23:07:12.069Z,36.17
2022-11-24T23:09:38.629Z,35.35
2022-11-24T23:12:05.740Z,35.35
2022-11-24T23:14:32.408Z,35.05
2022-11-24T23:17:00.372Z,36.20
2022-11-24T23:19:26.964Z,34.33
2022-11-24T23:21:53.507Z,38.08
2022-11-24T23:24:20.090Z,33.63
2022-11-24T23:26:46.716Z,33.13
2022-11-24T23:29:13.354Z,32.58
2022-11-24T23:31:40.302Z,34.85
2022-11-24T23:34:08.519Z,33.85
2022-11-24T23:36:35.246Z,31.67
2022-11-24T23:39:03.329Z,36.60
2022-11-24T23:41:31.030Z,30.67
2022-11-24T23:43:57.668Z,34.90
2022-11-24T23:46:25.838Z,31.52
2022-11-24T23:48:53.980Z,34.63
2022-11-24T23:51:23.662Z,33.00
2022-11-24T23:53:51.120Z,31.35
2022-11-24T23:56:19.641Z,29.17
2022-11-24T23:58:46.642Z,32.47
